Historyczne dane pomiarowe

Dodano dane terminowe – wersja testowa.

Dane z okresu 1951-2018

Wersja bazy: 1.27 [2018-11-28, lista zmian], aktualizacja planowana na 2018-12-07

Dane meteo z obszaru Polski uzyskane na podstawie danych udostępnionych przez Instytut Meteorologii i Gospodarki Wodnej – Państwowy Instytut Badawczy.

 

Wybierz Datę:    

       

TemperaturaWilgotnośćWiatrCiśnienieOpadyŚniegCzas trwania zjawisk
 Stacja t tx tn tng RH VA  wxwx mslp ppp RRR   cm mm wxwxwxwxwxwxwx
1959-11-08 3.1 4.7 2.4 2.7 96.3- 8.0 3.7---- 0.3------------
1959-11-09 3.9 4.1 2.0 1.9 97.8- 8.0 3.0---- 1.5------------
1959-11-10 4.3 5.5 3.9 4.1 96.3- 8.0 4.7---- 7.9------------
1959-11-11 4.7 6.1 3.2 3.0 93.3- 7.7 3.0---- 0.0------------
1959-11-12 3.3 5.2 1.6 3.6 96.3- 8.0 3.3---- 7.1------------
1959-11-13 2.5 3.5 1.6 2.3 94.8- 8.0 7.7---- 0.0------------
1959-11-14 3.6 5.5 2.0 2.1 89.8- 8.0 8.7---- 0.0------------
1959-11-15 0.7 4.4 -0.9 -0.4 68.5- 2.7 9.3---- 0.0------------
1959-11-16 -3.5 -0.7 -4.9 -5.3 80.0- 4.7 7.0---- 0.0------------
1959-11-17 -3.5 -3.1 -4.6 -4.2 86.0- 8.0 4.0---- 0.3------------
1959-11-18 -0.9 0.4 -3.8 -3.8 88.3- 8.0 7.7---- 0.0-- 1---------
1959-11-19 0.3 0.6 -0.6 -0.9 94.0- 8.0 7.0---- 6.0-- 1---------
1959-11-20 0.4 1.2 -0.5 -0.3 99.5- 8.0 0.7---- 0.0-- 2---------
1959-11-21 -1.2 0.4 -2.2 -0.4 88.5- 7.3 4.0---- 0.0-- 1---------
1959-11-22 -3.4 -0.9 -8.1-12.3 88.5- 5.0 2.7---- 0.0-- 1---------
1959-11-23 -1.0 -0.1 -2.6 -2.6 98.8- 8.0 3.0---- 0.0-- 1---------
1959-11-24 1.4 2.5 -0.4 -0.5100.0- 8.0 2.7---- 0.0-- 1---------
1959-11-25 0.6 3.7 -1.7 1.2 88.3- 3.0 2.0---- 0.0------------
1959-11-26 -1.4 -0.3 -3.5 -9.3 93.5- 8.0 3.0---- 0.0------------
1959-11-27 -0.3 0.5 -2.6 -2.7 86.3- 8.0 7.3---- 0.0------------
1959-11-28 0.8 2.7 -2.5 -3.7 89.0- 7.3 5.0---- 0.0------------
1959-11-29 0.8 2.7 0.1 0.7 98.0- 8.0 1.3---- 1.6------------
1959-11-30 1.3 2.4 0.1 -0.1 96.0- 8.0 1.7---- 0.0------------
1959-12-01 1.0 2.1 0.1 0.5 96.5- 8.0 6.0---- 0.3------------
1959-12-02 0.5 1.3 0.3 0.2 95.0- 8.0 5.7---- 13.7------------
1959-12-03 0.9 1.6 0.4 0.2100.0- 8.0 3.7---- 0.1------------
1959-12-04 -2.9 0.8 -4.0 -1.3 85.8- 8.0 10.0---- 0.0------------
1959-12-05-11.8 -3.8-14.6 -8.7 49.0- 5.0 12.0---- 0.0------------
1959-12-06-17.3-13.5-18.8-18.3 70.5- 0.0 8.3---- 0.0------------
1959-12-07-18.5-15.8-21.4-22.0 57.3- 2.0 9.7---- 0.0------------
385.2 ms

 

Źródłem pochodzenia danych jest Instytut Meteorologii i Gospodarki Wodnej – Państwowy Instytut Badawczy. Dane Instytutu Meteorologii i Gospodarki Wodnej – Państwowego Instytutu Badawczego zostały przetworzone.

Dane źródłowe można odnaleźć na stronie https://dane.imgw.pl